sensor_id;sensor_type;location;lat;lon;timestamp;pressure;altitude;pressure_sealevel;temperature;humidity
9439;BME280;5176;42.622;25.386;2023-03-26T00:02:08;96432.13;;;13.49;90.72
9439;BME280;5176;42.622;25.386;2023-03-26T00:04:38;96433.53;;;13.53;89.65
9439;BME280;5176;42.622;25.386;2023-03-26T00:07:08;96439.03;;;13.50;90.38
9439;BME280;5176;42.622;25.386;2023-03-26T00:09:38;96446.53;;;13.45;89.46
9439;BME280;5176;42.622;25.386;2023-03-26T00:12:07;96433.31;;;13.35;89.35
9439;BME280;5176;42.622;25.386;2023-03-26T00:14:37;96433.06;;;13.38;86.80
9439;BME280;5176;42.622;25.386;2023-03-26T00:17:06;96436.78;;;13.35;86.73
9439;BME280;5176;42.622;25.386;2023-03-26T00:19:35;96438.34;;;13.38;88.11
9439;BME280;5176;42.622;25.386;2023-03-26T00:22:05;96438.34;;;13.48;88.43
9439;BME280;5176;42.622;25.386;2023-03-26T00:24:33;96430.16;;;13.41;88.76
9439;BME280;5176;42.622;25.386;2023-03-26T00:27:03;96436.94;;;13.44;89.59
9439;BME280;5176;42.622;25.386;2023-03-26T00:29:32;96427.97;;;13.46;91.14
9439;BME280;5176;42.622;25.386;2023-03-26T00:32:03;96434.59;;;13.31;91.45
9439;BME280;5176;42.622;25.386;2023-03-26T00:34:34;96428.34;;;13.32;92.22
9439;BME280;5176;42.622;25.386;2023-03-26T00:37:03;96423.38;;;13.39;92.92
9439;BME280;5176;42.622;25.386;2023-03-26T00:39:32;96433.06;;;13.38;93.85
9439;BME280;5176;42.622;25.386;2023-03-26T00:42:03;96428.91;;;13.35;93.28
9439;BME280;5176;42.622;25.386;2023-03-26T00:44:34;96438.72;;;13.33;94.90
9439;BME280;5176;42.622;25.386;2023-03-26T00:47:05;96435.53;;;13.30;95.00
9439;BME280;5176;42.622;25.386;2023-03-26T00:49:36;96445.50;;;13.26;94.59
9439;BME280;5176;42.622;25.386;2023-03-26T00:52:05;96437.28;;;13.20;91.61
9439;BME280;5176;42.622;25.386;2023-03-26T00:54:34;96446.97;;;13.19;89.83
9439;BME280;5176;42.622;25.386;2023-03-26T00:57:03;96454.63;;;13.22;89.25
9439;BME280;5176;42.622;25.386;2023-03-26T00:59:32;96448.38;;;13.23;88.23
9439;BME280;5176;42.622;25.386;2023-03-26T01:02:03;96450.44;;;13.20;88.47
9439;BME280;5176;42.622;25.386;2023-03-26T01:04:33;96455.66;;;13.10;86.45
9439;BME280;5176;42.622;25.386;2023-03-26T01:07:08;96461.50;;;13.14;87.33
9439;BME280;5176;42.622;25.386;2023-03-26T01:09:41;96461.72;;;13.01;85.78
9439;BME280;5176;42.622;25.386;2023-03-26T01:12:13;96449.13;;;13.04;84.53
9439;BME280;5176;42.622;25.386;2023-03-26T01:14:43;96459.97;;;13.11;84.48
9439;BME280;5176;42.622;25.386;2023-03-26T01:17:15;96458.84;;;13.14;84.41
9439;BME280;5176;42.622;25.386;2023-03-26T01:19:48;96474.69;;;13.23;83.09
9439;BME280;5176;42.622;25.386;2023-03-26T01:22:21;96490.56;;;13.33;84.27
9439;BME280;5176;42.622;25.386;2023-03-26T01:24:52;96477.81;;;13.38;84.19
9439;BME280;5176;42.622;25.386;2023-03-26T01:27:30;96474.22;;;13.39;88.09
9439;BME280;5176;42.622;25.386;2023-03-26T01:30:08;96430.53;;;12.96;93.23
9439;BME280;5176;42.622;25.386;2023-03-26T01:32:50;96462.84;;;13.08;95.73
9439;BME280;5176;42.622;25.386;2023-03-26T01:35:28;96452.53;;;12.95;93.29
9439;BME280;5176;42.622;25.386;2023-03-26T01:38:05;96467.34;;;12.96;95.00
9439;BME280;5176;42.622;25.386;2023-03-26T01:40:44;96464.72;;;12.96;93.33
9439;BME280;5176;42.622;25.386;2023-03-26T01:43:25;96438.25;;;12.88;92.14
9439;BME280;5176;42.622;25.386;2023-03-26T01:46:00;96441.69;;;12.79;91.84
9439;BME280;5176;42.622;25.386;2023-03-26T01:48:31;96428.59;;;12.68;89.80
9439;BME280;5176;42.622;25.386;2023-03-26T01:51:01;96430.91;;;12.61;89.74
9439;BME280;5176;42.622;25.386;2023-03-26T01:53:30;96428.88;;;12.65;88.95
9439;BME280;5176;42.622;25.386;2023-03-26T01:56:10;96439.78;;;12.60;89.19
9439;BME280;5176;42.622;25.386;2023-03-26T01:58:54;96438.63;;;12.53;88.52
9439;BME280;5176;42.622;25.386;2023-03-26T02:01:33;96437.59;;;12.65;88.99
9439;BME280;5176;42.622;25.386;2023-03-26T02:04:20;96441.19;;;12.64;86.45
9439;BME280;5176;42.622;25.386;2023-03-26T02:06:53;96433.41;;;12.63;87.69
9439;BME280;5176;42.622;25.386;2023-03-26T02:09:31;96439.44;;;12.74;87.41
9439;BME280;5176;42.622;25.386;2023-03-26T02:12:07;96417.84;;;12.71;85.54
9439;BME280;5176;42.622;25.386;2023-03-26T02:14:37;96486.72;;;12.65;84.77
9439;BME280;5176;42.622;25.386;2023-03-26T02:17:08;96492.28;;;12.71;85.00
9439;BME280;5176;42.622;25.386;2023-03-26T02:19:37;96507.75;;;12.86;84.89
9439;BME280;5176;42.622;25.386;2023-03-26T02:22:08;96522.19;;;12.91;83.63
9439;BME280;5176;42.622;25.386;2023-03-26T02:24:42;96535.19;;;12.93;84.75
9439;BME280;5176;42.622;25.386;2023-03-26T02:27:12;96525.88;;;12.89;89.11
9439;BME280;5176;42.622;25.386;2023-03-26T02:29:44;96522.19;;;12.91;91.29
9439;BME280;5176;42.622;25.386;2023-03-26T02:32:13;96524.91;;;12.90;92.61
9439;BME280;5176;42.622;25.386;2023-03-26T02:34:42;96538.34;;;12.87;93.78
9439;BME280;5176;42.622;25.386;2023-03-26T02:37:11;96538.34;;;12.87;94.14
9439;BME280;5176;42.622;25.386;2023-03-26T02:39:40;96540.28;;;12.85;92.25
9439;BME280;5176;42.622;25.386;2023-03-26T02:42:08;96534.28;;;12.82;92.08
9439;BME280;5176;42.622;25.386;2023-03-26T02:44:40;96535.53;;;12.78;92.47
9439;BME280;5176;42.622;25.386;2023-03-26T02:47:09;96538.38;;;12.75;91.80
9439;BME280;5176;42.622;25.386;2023-03-26T02:49:38;96529.66;;;12.75;90.29
9439;BME280;5176;42.622;25.386;2023-03-26T02:52:07;96517.81;;;12.80;89.37
9439;BME280;5176;42.622;25.386;2023-03-26T02:54:36;96521.84;;;12.85;89.62
9439;BME280;5176;42.622;25.386;2023-03-26T02:57:05;96518.81;;;12.89;89.27
9439;BME280;5176;42.622;25.386;2023-03-26T02:59:34;96511.53;;;12.93;89.29
9439;BME280;5176;42.622;25.386;2023-03-26T03:02:08;96509.03;;;12.91;88.25
9439;BME280;5176;42.622;25.386;2023-03-26T03:04:39;96508.56;;;12.86;86.71
9439;BME280;5176;42.622;25.386;2023-03-26T03:07:08;96509.47;;;12.75;82.97
9439;BME280;5176;42.622;25.386;2023-03-26T03:09:40;96507.25;;;12.71;80.22
9439;BME280;5176;42.622;25.386;2023-03-26T03:12:09;96504.03;;;12.67;76.93
9439;BME280;5176;42.622;25.386;2023-03-26T03:14:38;96513.56;;;12.68;76.69
9439;BME280;5176;42.622;25.386;2023-03-26T03:17:09;96522.16;;;12.70;77.73
9439;BME280;5176;42.622;25.386;2023-03-26T03:19:37;96528.88;;;12.63;75.05
9439;BME280;5176;42.622;25.386;2023-03-26T03:22:06;96528.06;;;12.63;74.88
9439;BME280;5176;42.622;25.386;2023-03-26T03:24:35;96510.44;;;12.53;75.11
9439;BME280;5176;42.622;25.386;2023-03-26T03:27:04;96524.88;;;12.59;74.97
9439;BME280;5176;42.622;25.386;2023-03-26T03:29:33;96526.91;;;12.55;74.92
9439;BME280;5176;42.622;25.386;2023-03-26T03:32:02;96525.25;;;12.54;74.84
9439;BME280;5176;42.622;25.386;2023-03-26T03:34:33;96523.94;;;12.49;73.86
9439;BME280;5176;42.622;25.386;2023-03-26T03:37:04;96519.53;;;12.49;72.69
9439;BME280;5176;42.622;25.386;2023-03-26T03:39:33;96501.56;;;12.34;73.08
9439;BME280;5176;42.622;25.386;2023-03-26T03:42:02;96516.00;;;12.39;72.07
9439;BME280;5176;42.622;25.386;2023-03-26T03:44:31;96511.72;;;12.38;72.51
9439;BME280;5176;42.622;25.386;2023-03-26T03:47:00;96505.41;;;12.30;72.16
9439;BME280;5176;42.622;25.386;2023-03-26T03:49:29;96489.31;;;12.23;72.03
9439;BME280;5176;42.622;25.386;2023-03-26T03:52:03;96507.31;;;12.27;72.60
9439;BME280;5176;42.622;25.386;2023-03-26T03:54:31;96519.50;;;12.28;72.69
9439;BME280;5176;42.622;25.386;2023-03-26T03:57:00;96522.25;;;12.27;73.03
9439;BME280;5176;42.622;25.386;2023-03-26T03:59:29;96517.50;;;12.21;72.68
9439;BME280;5176;42.622;25.386;2023-03-26T04:01:58;96517.63;;;12.19;72.99
9439;BME280;5176;42.622;25.386;2023-03-26T04:04:27;96521.09;;;12.20;73.06
9439;BME280;5176;42.622;25.386;2023-03-26T04:06:59;96505.38;;;12.09;74.47
9439;BME280;5176;42.622;25.386;2023-03-26T04:09:28;96524.22;;;12.14;74.62
9439;BME280;5176;42.622;25.386;2023-03-26T04:11:58;96522.28;;;12.16;75.49
9439;BME280;5176;42.622;25.386;2023-03-26T04:14:27;96534.75;;;12.03;76.05
9439;BME280;5176;42.622;25.386;2023-03-26T04:16:56;96520.91;;;12.00;76.37
9439;BME280;5176;42.622;25.386;2023-03-26T04:19:25;96542.75;;;12.01;75.94
9439;BME280;5176;42.622;25.386;2023-03-26T04:21:54;96524.38;;;12.01;75.10
9439;BME280;5176;42.622;25.386;2023-03-26T04:24:29;96539.31;;;12.00;75.83
9439;BME280;5176;42.622;25.386;2023-03-26T04:27:00;96528.31;;;11.95;75.96
9439;BME280;5176;42.622;25.386;2023-03-26T04:29:30;96541.94;;;12.00;75.96
9439;BME280;5176;42.622;25.386;2023-03-26T04:32:04;96533.47;;;11.97;74.99
9439;BME280;5176;42.622;25.386;2023-03-26T04:34:34;96532.97;;;12.03;74.77
9439;BME280;5176;42.622;25.386;2023-03-26T04:37:03;96540.75;;;12.05;73.10
9439;BME280;5176;42.622;25.386;2023-03-26T04:39:34;96541.91;;;12.12;72.26
9439;BME280;5176;42.622;25.386;2023-03-26T04:42:06;96543.31;;;12.16;72.76
9439;BME280;5176;42.622;25.386;2023-03-26T04:44:37;96540.81;;;12.14;71.63
9439;BME280;5176;42.622;25.386;2023-03-26T04:47:08;96541.03;;;12.22;71.23
9439;BME280;5176;42.622;25.386;2023-03-26T04:49:37;96549.50;;;12.26;71.06
9439;BME280;5176;42.622;25.386;2023-03-26T04:52:09;96546.41;;;12.21;70.95
9439;BME280;5176;42.622;25.386;2023-03-26T04:54:42;96542.13;;;12.20;71.13
9439;BME280;5176;42.622;25.386;2023-03-26T04:57:15;96534.84;;;12.12;68.90
9439;BME280;5176;42.622;25.386;2023-03-26T04:59:46;96556.09;;;12.20;69.04
9439;BME280;5176;42.622;25.386;2023-03-26T05:02:16;96561.22;;;12.22;68.49
9439;BME280;5176;42.622;25.386;2023-03-26T05:04:46;96560.97;;;12.25;68.56
9439;BME280;5176;42.622;25.386;2023-03-26T05:07:18;96569.69;;;12.25;68.42
9439;BME280;5176;42.622;25.386;2023-03-26T05:09:50;96562.63;;;12.26;65.00
9439;BME280;5176;42.622;25.386;2023-03-26T05:12:18;96581.50;;;12.31;63.76
9439;BME280;5176;42.622;25.386;2023-03-26T05:14:47;96572.38;;;12.35;62.91
9439;BME280;5176;42.622;25.386;2023-03-26T05:17:16;96570.94;;;12.42;62.83
9439;BME280;5176;42.622;25.386;2023-03-26T05:19:47;96572.84;;;12.40;61.60
9439;BME280;5176;42.622;25.386;2023-03-26T05:22:17;96588.47;;;12.53;60.60
9439;BME280;5176;42.622;25.386;2023-03-26T05:24:46;96593.97;;;12.50;59.74
9439;BME280;5176;42.622;25.386;2023-03-26T05:27:17;96612.50;;;12.48;61.34
9439;BME280;5176;42.622;25.386;2023-03-26T05:29:48;96607.09;;;12.50;61.79
9439;BME280;5176;42.622;25.386;2023-03-26T05:32:17;96596.91;;;12.57;61.96
9439;BME280;5176;42.622;25.386;2023-03-26T05:34:47;96590.47;;;12.61;61.33
9439;BME280;5176;42.622;25.386;2023-03-26T05:37:16;96582.25;;;12.54;60.50
9439;BME280;5176;42.622;25.386;2023-03-26T05:39:46;96576.53;;;12.49;60.07
9439;BME280;5176;42.622;25.386;2023-03-26T05:42:16;96609.56;;;12.63;60.13
9439;BME280;5176;42.622;25.386;2023-03-26T05:44:45;96606.53;;;12.78;59.86
9439;BME280;5176;42.622;25.386;2023-03-26T05:47:14;96604.56;;;12.92;58.85
9439;BME280;5176;42.622;25.386;2023-03-26T05:49:43;96619.75;;;13.09;58.59
9439;BME280;5176;42.622;25.386;2023-03-26T05:52:13;96605.22;;;13.26;58.48
9439;BME280;5176;42.622;25.386;2023-03-26T05:54:45;96608.84;;;13.34;58.51
9439;BME280;5176;42.622;25.386;2023-03-26T05:57:13;96623.47;;;13.48;56.96
9439;BME280;5176;42.622;25.386;2023-03-26T05:59:43;96622.56;;;13.59;55.13
9439;BME280;5176;42.622;25.386;2023-03-26T06:02:12;96613.22;;;13.76;56.38
9439;BME280;5176;42.622;25.386;2023-03-26T06:04:41;96616.44;;;13.89;52.97
9439;BME280;5176;42.622;25.386;2023-03-26T06:07:11;96604.69;;;13.93;52.52
9439;BME280;5176;42.622;25.386;2023-03-26T06:09:41;96608.88;;;14.05;53.31
9439;BME280;5176;42.622;25.386;2023-03-26T06:12:10;96605.88;;;14.20;53.29
9439;BME280;5176;42.622;25.386;2023-03-26T06:14:40;96614.22;;;14.34;51.19
9439;BME280;5176;42.622;25.386;2023-03-26T06:17:14;96632.94;;;14.31;50.68
9439;BME280;5176;42.622;25.386;2023-03-26T06:19:44;96626.88;;;14.50;51.93
9439;BME280;5176;42.622;25.386;2023-03-26T06:22:14;96632.31;;;14.68;51.27
9439;BME280;5176;42.622;25.386;2023-03-26T06:24:42;96641.63;;;14.62;49.85
9439;BME280;5176;42.622;25.386;2023-03-26T06:27:12;96631.34;;;14.59;48.95
9439;BME280;5176;42.622;25.386;2023-03-26T06:29:41;96641.91;;;14.59;50.41
9439;BME280;5176;42.622;25.386;2023-03-26T06:32:13;96644.28;;;14.72;51.33
9439;BME280;5176;42.622;25.386;2023-03-26T06:34:42;96646.75;;;14.83;51.92
9439;BME280;5176;42.622;25.386;2023-03-26T06:37:11;96650.25;;;14.84;51.40
9439;BME280;5176;42.622;25.386;2023-03-26T06:39:40;96642.59;;;14.90;50.88
9439;BME280;5176;42.622;25.386;2023-03-26T06:42:10;96637.63;;;14.87;50.36
9439;BME280;5176;42.622;25.386;2023-03-26T06:44:39;96611.91;;;14.70;51.26
9439;BME280;5176;42.622;25.386;2023-03-26T06:47:08;96628.19;;;14.85;51.05
9439;BME280;5176;42.622;25.386;2023-03-26T06:49:38;96623.72;;;15.05;49.30
9439;BME280;5176;42.622;25.386;2023-03-26T06:52:08;96630.66;;;15.25;49.45
9439;BME280;5176;42.622;25.386;2023-03-26T06:54:37;96635.22;;;15.33;48.26
9439;BME280;5176;42.622;25.386;2023-03-26T06:57:06;96633.53;;;15.41;47.51
9439;BME280;5176;42.622;25.386;2023-03-26T06:59:35;96625.56;;;15.51;46.43
9439;BME280;5176;42.622;25.386;2023-03-26T07:02:04;96637.09;;;15.69;46.70
9439;BME280;5176;42.622;25.386;2023-03-26T07:04:33;96623.56;;;15.82;46.46
9439;BME280;5176;42.622;25.386;2023-03-26T07:07:04;96635.88;;;15.91;43.60
9439;BME280;5176;42.622;25.386;2023-03-26T07:09:33;96626.19;;;15.82;43.69
9439;BME280;5176;42.622;25.386;2023-03-26T07:12:02;96646.66;;;15.80;43.07
9439;BME280;5176;42.622;25.386;2023-03-26T07:14:32;96651.91;;;15.90;43.30
9439;BME280;5176;42.622;25.386;2023-03-26T07:17:00;96639.75;;;15.97;43.06
9439;BME280;5176;42.622;25.386;2023-03-26T07:19:30;96650.16;;;16.08;41.66
9439;BME280;5176;42.622;25.386;2023-03-26T07:21:59;96663.38;;;16.08;41.36
9439;BME280;5176;42.622;25.386;2023-03-26T07:24:30;96652.63;;;16.19;41.78
9439;BME280;5176;42.622;25.386;2023-03-26T07:27:02;96666.91;;;16.26;40.39
9439;BME280;5176;42.622;25.386;2023-03-26T07:29:38;96647.06;;;16.40;40.40
9439;BME280;5176;42.622;25.386;2023-03-26T07:32:14;96668.56;;;16.55;39.49
9439;BME280;5176;42.622;25.386;2023-03-26T07:34:52;96676.16;;;16.68;39.07
9439;BME280;5176;42.622;25.386;2023-03-26T07:37:31;96672.09;;;16.73;40.29
9439;BME280;5176;42.622;25.386;2023-03-26T07:40:10;96683.91;;;16.79;38.21
9439;BME280;5176;42.622;25.386;2023-03-26T07:42:53;96682.00;;;16.89;37.35
9439;BME280;5176;42.622;25.386;2023-03-26T07:45:29;96682.25;;;16.96;37.99
9439;BME280;5176;42.622;25.386;2023-03-26T07:48:04;96691.41;;;17.01;37.40
9439;BME280;5176;42.622;25.386;2023-03-26T07:50:36;96683.91;;;16.97;36.59
9439;BME280;5176;42.622;25.386;2023-03-26T07:53:06;96693.06;;;17.20;37.77
9439;BME280;5176;42.622;25.386;2023-03-26T07:55:40;96675.91;;;17.06;37.26
9439;BME280;5176;42.622;25.386;2023-03-26T07:58:22;96655.00;;;17.03;36.48
9439;BME280;5176;42.622;25.386;2023-03-26T08:01:01;96667.88;;;17.16;36.60
9439;BME280;5176;42.622;25.386;2023-03-26T08:03:52;96677.31;;;17.36;35.60
9439;BME280;5176;42.622;25.386;2023-03-26T08:06:32;96660.50;;;17.72;35.73
9439;BME280;5176;42.622;25.386;2023-03-26T08:09:07;96655.69;;;17.93;33.56
9439;BME280;5176;42.622;25.386;2023-03-26T08:11:49;96656.94;;;17.81;33.04
9439;BME280;5176;42.622;25.386;2023-03-26T08:14:32;96663.63;;;17.67;31.81
9439;BME280;5176;42.622;25.386;2023-03-26T08:17:09;96656.56;;;17.76;33.31
9439;BME280;5176;42.622;25.386;2023-03-26T08:19:50;96657.66;;;17.91;33.09
9439;BME280;5176;42.622;25.386;2023-03-26T08:22:27;96641.72;;;17.83;31.14
9439;BME280;5176;42.622;25.386;2023-03-26T08:25:23;96659.22;;;18.02;32.78
9439;BME280;5176;42.622;25.386;2023-03-26T08:28:15;96648.75;;;18.34;33.53
9439;BME280;5176;42.622;25.386;2023-03-26T08:30:47;96653.44;;;18.57;33.51
9439;BME280;5176;42.622;25.386;2023-03-26T08:33:24;96646.41;;;18.73;32.63
9439;BME280;5176;42.622;25.386;2023-03-26T08:35:54;96650.69;;;18.66;30.31
9439;BME280;5176;42.622;25.386;2023-03-26T08:38:22;96649.72;;;18.67;30.97
9439;BME280;5176;42.622;25.386;2023-03-26T08:41:23;96661.00;;;18.77;30.25
9439;BME280;5176;42.622;25.386;2023-03-26T08:53:40;96634.09;;;18.22;30.63
9439;BME280;5176;42.622;25.386;2023-03-26T08:56:23;96646.41;;;18.31;31.35
9439;BME280;5176;42.622;25.386;2023-03-26T09:05:43;96639.63;;;18.45;31.70
9439;BME280;5176;42.622;25.386;2023-03-26T09:08:46;96639.75;;;18.27;31.48
9439;BME280;5176;42.622;25.386;2023-03-26T09:15:06;96651.44;;;18.59;31.20
9439;BME280;5176;42.622;25.386;2023-03-26T09:18:10;96656.47;;;18.62;31.48
9439;BME280;5176;42.622;25.386;2023-03-26T09:21:20;96662.94;;;18.59;30.65
9439;BME280;5176;42.622;25.386;2023-03-26T09:24:18;96663.53;;;18.45;31.44
9439;BME280;5176;42.622;25.386;2023-03-26T09:26:59;96643.47;;;18.50;30.69
9439;BME280;5176;42.622;25.386;2023-03-26T09:35:50;96656.03;;;18.83;32.93
9439;BME280;5176;42.622;25.386;2023-03-26T09:38:44;96668.84;;;19.03;30.97
9439;BME280;5176;42.622;25.386;2023-03-26T09:41:19;96670.00;;;19.17;31.26
9439;BME280;5176;42.622;25.386;2023-03-26T09:47:22;96651.84;;;20.02;31.07
9439;BME280;5176;42.622;25.386;2023-03-26T09:50:01;96655.56;;;20.32;30.78
9439;BME280;5176;42.622;25.386;2023-03-26T09:52:53;96672.41;;;20.64;29.33
9439;BME280;5176;42.622;25.386;2023-03-26T09:55:51;96675.16;;;20.48;28.03
9439;BME280;5176;42.622;25.386;2023-03-26T09:58:38;96669.31;;;20.44;29.06
9439;BME280;5176;42.622;25.386;2023-03-26T10:01:13;96669.44;;;20.11;29.44
9439;BME280;5176;42.622;25.386;2023-03-26T10:03:57;96641.44;;;19.76;29.74
9439;BME280;5176;42.622;25.386;2023-03-26T10:06:49;96658.72;;;19.80;29.67
9439;BME280;5176;42.622;25.386;2023-03-26T10:09:39;96665.53;;;19.83;28.53
9439;BME280;5176;42.622;25.386;2023-03-26T10:12:23;96674.53;;;19.57;30.09
9439;BME280;5176;42.622;25.386;2023-03-26T10:15:08;96672.19;;;19.63;29.53
9439;BME280;5176;42.622;25.386;2023-03-26T10:17:55;96660.88;;;19.52;29.15
9439;BME280;5176;42.622;25.386;2023-03-26T10:20:51;96661.72;;;19.69;29.39
9439;BME280;5176;42.622;25.386;2023-03-26T10:23:40;96648.25;;;19.71;29.95
9439;BME280;5176;42.622;25.386;2023-03-26T10:26:41;96646.94;;;19.58;29.16
9439;BME280;5176;42.622;25.386;2023-03-26T10:29:48;96635.97;;;19.53;30.73
9439;BME280;5176;42.622;25.386;2023-03-26T10:32:29;96615.72;;;19.61;30.37
9439;BME280;5176;42.622;25.386;2023-03-26T10:35:14;96627.06;;;20.02;31.42
9439;BME280;5176;42.622;25.386;2023-03-26T10:37:57;96612.63;;;19.96;31.72
9439;BME280;5176;42.622;25.386;2023-03-26T10:40:31;96602.31;;;20.01;31.40
9439;BME280;5176;42.622;25.386;2023-03-26T10:43:32;96615.56;;;20.09;31.27
9439;BME280;5176;42.622;25.386;2023-03-26T10:46:23;96605.97;;;20.00;30.40
9439;BME280;5176;42.622;25.386;2023-03-26T10:49:19;96581.56;;;19.89;31.01
9439;BME280;5176;42.622;25.386;2023-03-26T10:51:57;96598.41;;;20.20;31.73
9439;BME280;5176;42.622;25.386;2023-03-26T10:54:39;96588.38;;;20.30;30.82
9439;BME280;5176;42.622;25.386;2023-03-26T10:57:18;96581.97;;;20.39;31.24
9439;BME280;5176;42.622;25.386;2023-03-26T10:59:53;96582.75;;;20.56;30.84
9439;BME280;5176;42.622;25.386;2023-03-26T11:02:31;96585.81;;;20.45;30.11
9439;BME280;5176;42.622;25.386;2023-03-26T11:05:33;96584.50;;;20.41;30.45
9439;BME280;5176;42.622;25.386;2023-03-26T11:08:13;96570.38;;;20.40;28.91
9439;BME280;5176;42.622;25.386;2023-03-26T11:10:51;96566.88;;;20.40;29.63
9439;BME280;5176;42.622;25.386;2023-03-26T11:13:32;96567.03;;;20.47;29.54
9439;BME280;5176;42.622;25.386;2023-03-26T11:16:15;96570.91;;;20.59;29.28
9439;BME280;5176;42.622;25.386;2023-03-26T11:18:52;96570.19;;;20.73;29.77
9439;BME280;5176;42.622;25.386;2023-03-26T11:21:26;96577.81;;;20.76;29.64
9439;BME280;5176;42.622;25.386;2023-03-26T11:24:24;96582.00;;;20.71;28.60
9439;BME280;5176;42.622;25.386;2023-03-26T11:26:59;96565.25;;;20.85;28.92
9439;BME280;5176;42.622;25.386;2023-03-26T11:29:39;96572.00;;;20.95;29.36
9439;BME280;5176;42.622;25.386;2023-03-26T11:32:16;96581.13;;;21.01;29.62
9439;BME280;5176;42.622;25.386;2023-03-26T11:34:56;96573.69;;;21.11;28.69
9439;BME280;5176;42.622;25.386;2023-03-26T11:37:31;96562.41;;;21.09;28.17
9439;BME280;5176;42.622;25.386;2023-03-26T11:40:05;96571.81;;;21.20;27.44
9439;BME280;5176;42.622;25.386;2023-03-26T11:42:38;96565.31;;;20.77;27.08
9439;BME280;5176;42.622;25.386;2023-03-26T11:45:15;96562.78;;;20.60;26.42
9439;BME280;5176;42.622;25.386;2023-03-26T11:47:48;96566.03;;;20.48;28.03
9439;BME280;5176;42.622;25.386;2023-03-26T11:50:24;96542.91;;;20.40;27.08
9439;BME280;5176;42.622;25.386;2023-03-26T11:52:56;96536.88;;;20.46;28.07
9439;BME280;5176;42.622;25.386;2023-03-26T11:55:27;96532.91;;;20.73;27.22
9439;BME280;5176;42.622;25.386;2023-03-26T11:57:59;96531.19;;;20.80;27.81
9439;BME280;5176;42.622;25.386;2023-03-26T12:00:28;96538.13;;;21.04;27.35
9439;BME280;5176;42.622;25.386;2023-03-26T12:02:58;96540.34;;;21.15;25.35
9439;BME280;5176;42.622;25.386;2023-03-26T12:05:29;96525.88;;;21.33;27.22
9439;BME280;5176;42.622;25.386;2023-03-26T12:08:16;96529.13;;;21.28;26.25
9439;BME280;5176;42.622;25.386;2023-03-26T12:10:50;96532.06;;;21.33;26.27
9439;BME280;5176;42.622;25.386;2023-03-26T12:13:32;96524.41;;;21.30;26.66
9439;BME280;5176;42.622;25.386;2023-03-26T12:16:08;96539.25;;;21.25;26.12
9439;BME280;5176;42.622;25.386;2023-03-26T12:18:38;96539.69;;;21.36;25.67
9439;BME280;5176;42.622;25.386;2023-03-26T12:21:14;96544.59;;;21.47;26.26
9439;BME280;5176;42.622;25.386;2023-03-26T12:23:53;96541.34;;;21.37;25.59
9439;BME280;5176;42.622;25.386;2023-03-26T12:26:37;96530.22;;;21.34;26.56
9439;BME280;5176;42.622;25.386;2023-03-26T12:29:09;96530.75;;;21.29;26.65
9439;BME280;5176;42.622;25.386;2023-03-26T12:31:47;96532.13;;;21.40;26.27
9439;BME280;5176;42.622;25.386;2023-03-26T12:34:18;96531.88;;;21.35;25.33
9439;BME280;5176;42.622;25.386;2023-03-26T12:36:53;96540.91;;;21.26;25.58
9439;BME280;5176;42.622;25.386;2023-03-26T12:39:34;96522.38;;;21.32;25.83
9439;BME280;5176;42.622;25.386;2023-03-26T12:42:13;96545.22;;;21.49;26.22
9439;BME280;5176;42.622;25.386;2023-03-26T12:44:51;96524.00;;;21.18;26.19
9439;BME280;5176;42.622;25.386;2023-03-26T12:47:24;96514.31;;;21.03;25.74
9439;BME280;5176;42.622;25.386;2023-03-26T12:49:53;96518.19;;;21.00;26.19
9439;BME280;5176;42.622;25.386;2023-03-26T12:52:57;96512.59;;;21.10;26.59
9439;BME280;5176;42.622;25.386;2023-03-26T12:55:39;96514.88;;;21.36;25.72
9439;BME280;5176;42.622;25.386;2023-03-26T12:58:23;96518.25;;;21.44;25.87
9439;BME280;5176;42.622;25.386;2023-03-26T13:00:59;96521.66;;;21.53;25.29
9439;BME280;5176;42.622;25.386;2023-03-26T13:03:41;96514.22;;;21.63;24.88
9439;BME280;5176;42.622;25.386;2023-03-26T13:06:26;96517.91;;;21.77;25.60
9439;BME280;5176;42.622;25.386;2023-03-26T13:12:22;96518.66;;;21.56;25.02
9439;BME280;5176;42.622;25.386;2023-03-26T13:15:06;96509.19;;;21.68;25.13
9439;BME280;5176;42.622;25.386;2023-03-26T13:17:42;96496.78;;;21.61;25.72
9439;BME280;5176;42.622;25.386;2023-03-26T13:20:23;96509.09;;;21.47;25.88
9439;BME280;5176;42.622;25.386;2023-03-26T13:23:00;96490.59;;;21.45;25.74
9439;BME280;5176;42.622;25.386;2023-03-26T13:25:37;96485.00;;;21.40;24.88
9439;BME280;5176;42.622;25.386;2023-03-26T13:28:26;96496.81;;;21.23;25.32
9439;BME280;5176;42.622;25.386;2023-03-26T13:31:04;96489.63;;;21.09;24.75
9439;BME280;5176;42.622;25.386;2023-03-26T13:33:44;96494.13;;;21.08;25.54
9439;BME280;5176;42.622;25.386;2023-03-26T13:36:20;96487.31;;;21.06;24.97
9439;BME280;5176;42.622;25.386;2023-03-26T13:39:02;96498.06;;;21.12;24.96
9439;BME280;5176;42.622;25.386;2023-03-26T13:44:41;96497.22;;;20.97;24.67
9439;BME280;5176;42.622;25.386;2023-03-26T13:47:17;96505.06;;;21.13;24.59
9439;BME280;5176;42.622;25.386;2023-03-26T13:49:49;96493.13;;;21.09;23.61
9439;BME280;5176;42.622;25.386;2023-03-26T13:52:20;96491.38;;;21.02;24.06
9439;BME280;5176;42.622;25.386;2023-03-26T13:54:53;96493.53;;;20.83;23.74
9439;BME280;5176;42.622;25.386;2023-03-26T13:57:28;96496.16;;;20.68;23.79
9439;BME280;5176;42.622;25.386;2023-03-26T14:00:04;96499.16;;;20.65;24.39
9439;BME280;5176;42.622;25.386;2023-03-26T14:02:41;96489.88;;;20.61;23.70
9439;BME280;5176;42.622;25.386;2023-03-26T14:05:16;96499.28;;;20.49;24.05
9439;BME280;5176;42.622;25.386;2023-03-26T14:07:50;96494.78;;;20.50;23.70
9439;BME280;5176;42.622;25.386;2023-03-26T14:10:23;96501.69;;;20.59;23.54
9439;BME280;5176;42.622;25.386;2023-03-26T14:12:55;96488.22;;;20.60;24.27
9439;BME280;5176;42.622;25.386;2023-03-26T14:15:35;96497.16;;;20.67;24.07
9439;BME280;5176;42.622;25.386;2023-03-26T14:18:24;96505.19;;;20.59;23.45
9439;BME280;5176;42.622;25.386;2023-03-26T14:21:24;96502.00;;;20.64;23.74
9439;BME280;5176;42.622;25.386;2023-03-26T14:27:16;96487.94;;;20.55;24.25
9439;BME280;5176;42.622;25.386;2023-03-26T14:30:12;96495.53;;;20.81;24.44
9439;BME280;5176;42.622;25.386;2023-03-26T14:32:54;96494.47;;;21.05;24.21